Aérodrome :
LOGIN :

S'inscrire | Disclaimer

   EN    FR    IT 

 










Légende :    VFR   VFR Marginal   IFR   IFR Intensif   IFR Très Intensif
Visi : 
Plafond : 
>= 8 km
>= 3000ft
5 à 8 km
1000 à 3000 ft
1500m à 5 km
500 à 1000 ft
800 à 1500m
200 à 500 ft
< 800m
< 200 ft
Symboles :   Orages  Brouillard  Fortes neiges  Fortes précipitations  Vent > 20 kt
SIGMETs :   Divers  Orages  Givrage  Turbulence  Onde Orograph.  Cendres Volcan.






- Altitude de l'aérodrome : 2936 ft


LECH - Calamocha

DERNIER METAR :
  • 250030Z AUTO 17003KT 150V240 9000 NCD 09/04 Q1019

METARs EXPIRÉS :
  • 250000Z AUTO 18002KT 9000 NCD 10/04 Q1020
  • 242330Z AUTO 20003KT CAVOK 10/05 Q1020
  • 242300Z AUTO 17004KT CAVOK 11/05 Q1020
  • 242230Z AUTO 19005KT 6000 NCD 11/05 Q1021
  • 242200Z AUTO 21004KT 9000 NCD 12/06 Q1021

Prévision TAF périmée.



MET'MAP, la Météo Aéronautique d'un coup d'oeil ! - Copyright ORBIFLY Décembre 2007 - Disclaimer

ORBIFLY MET'MAP TEAM :

Programmation & Développement : Alexandra Zaïnal
Sur une idée originale de : Baudouin d'Aumeries
Assistance à la programmation : Marc-Olivier Méhu
Soutien technique & logistique : Manuel Goepfert

Contact : metmap@orbifly.com




SOURCES & CREDITS :

   NOAA